createdAt,value
2023-03-05T00:03:23.908Z,3.22
2023-03-05T00:07:26.612Z,7.50
2023-03-05T00:11:30.768Z,3.15
2023-03-05T00:15:33.353Z,2.13
2023-03-05T00:19:37.297Z,2.90
2023-03-05T00:23:39.915Z,2.72
2023-03-05T00:27:42.501Z,4.82
2023-03-05T00:31:45.358Z,3.95
2023-03-05T00:35:49.273Z,4.30
2023-03-05T00:39:51.882Z,3.78
2023-03-05T00:43:54.466Z,4.68
2023-03-05T00:47:57.131Z,3.20
2023-03-05T00:52:01.045Z,5.53
2023-03-05T00:56:03.665Z,5.03
2023-03-05T01:00:07.792Z,4.63
2023-03-05T01:04:10.598Z,4.55
2023-03-05T01:08:15.470Z,3.58
2023-03-05T01:12:18.078Z,3.90
2023-03-05T01:16:20.758Z,3.35
2023-03-05T01:20:24.220Z,5.75
2023-03-05T01:24:28.229Z,4.38
2023-03-05T01:28:31.014Z,4.00
2023-03-05T01:32:34.863Z,4.13
2023-03-05T01:36:38.331Z,3.22
2023-03-05T01:40:42.886Z,4.70
2023-03-05T01:45:01.265Z,3.53
2023-03-05T01:49:15.593Z,3.28
2023-03-05T01:53:18.544Z,2.92
2023-03-05T01:57:26.640Z,5.25
2023-03-05T02:01:29.316Z,3.70
2023-03-05T02:05:33.758Z,4.40
2023-03-05T02:09:39.310Z,3.63
2023-03-05T02:13:43.306Z,3.53
2023-03-05T02:17:46.298Z,4.63
2023-03-05T02:21:50.910Z,2.53
2023-03-05T02:25:53.661Z,5.50
2023-03-05T02:29:56.375Z,3.58
2023-03-05T02:33:59.050Z,2.88
2023-03-05T02:38:03.029Z,3.30
2023-03-05T02:42:05.792Z,5.20
2023-03-05T02:46:08.970Z,4.93
2023-03-05T02:50:13.108Z,5.88
2023-03-05T02:54:17.085Z,5.63
2023-03-05T02:58:19.868Z,4.32
2023-03-05T03:02:22.655Z,5.57
2023-03-05T03:06:25.327Z,4.40
2023-03-05T03:10:29.324Z,5.60
2023-03-05T03:14:32.966Z,3.42
2023-03-05T03:18:35.690Z,5.40
2023-03-05T03:22:38.455Z,3.92
2023-03-05T03:26:42.497Z,3.03
2023-03-05T03:30:45.272Z,3.75
2023-03-05T03:34:48.108Z,4.07
2023-03-05T03:38:50.731Z,4.55
2023-03-05T03:42:54.797Z,3.08
2023-03-05T03:46:57.456Z,3.25
2023-03-05T03:51:00.098Z,3.85
2023-03-05T03:55:02.745Z,3.13
2023-03-05T03:59:06.885Z,6.32
2023-03-05T04:03:09.660Z,4.45
2023-03-05T04:07:12.398Z,3.88
2023-03-05T04:11:15.945Z,4.43
2023-03-05T04:15:19.995Z,3.47
2023-03-05T04:19:22.668Z,4.35
2023-03-05T04:23:25.375Z,3.65
2023-03-05T04:27:28.102Z,4.00
2023-03-05T04:31:32.183Z,3.22
2023-03-05T04:35:34.874Z,4.88
2023-03-05T04:39:37.656Z,4.47
2023-03-05T04:43:40.501Z,5.80
2023-03-05T04:47:44.565Z,4.15
2023-03-05T04:51:47.205Z,4.20
2023-03-05T04:55:53.750Z,3.80
2023-03-05T04:59:56.565Z,5.45
2023-03-05T05:04:00.489Z,4.07
2023-03-05T05:08:03.136Z,4.28
2023-03-05T05:12:06.249Z,4.43
2023-03-05T05:16:09.781Z,4.28
2023-03-05T05:20:16.085Z,4.20
2023-03-05T05:24:18.712Z,2.83
2023-03-05T05:28:21.417Z,3.58
2023-03-05T05:32:25.211Z,3.08
2023-03-05T05:36:29.377Z,4.40
2023-03-05T05:40:32.009Z,4.68
2023-03-05T05:44:34.959Z,2.92
2023-03-05T05:48:38.295Z,4.45
2023-03-05T05:52:42.239Z,4.07
2023-03-05T05:56:44.865Z,5.35
2023-03-05T06:00:47.539Z,4.22
2023-03-05T06:04:50.162Z,5.38
2023-03-05T06:08:54.912Z,4.30
2023-03-05T06:12:57.588Z,3.38
2023-03-05T06:17:00.219Z,2.92
2023-03-05T06:21:04.573Z,3.67
2023-03-05T06:25:10.166Z,4.15
2023-03-05T06:29:12.869Z,2.45
2023-03-05T06:33:15.504Z,5.88
2023-03-05T06:37:18.194Z,4.47
2023-03-05T06:41:23.822Z,3.65
2023-03-05T06:45:26.441Z,2.83
2023-03-05T06:49:29.136Z,5.82
2023-03-05T06:53:31.939Z,5.00
2023-03-05T06:57:35.909Z,3.72
2023-03-05T07:01:38.676Z,4.47
2023-03-05T07:05:42.474Z,4.93
2023-03-05T07:09:45.963Z,3.30
2023-03-05T07:13:50.062Z,5.80
2023-03-05T07:17:52.684Z,4.60
2023-03-05T07:21:55.293Z,5.28
2023-03-05T07:25:58.132Z,4.95
2023-03-05T07:30:02.419Z,4.32
2023-03-05T07:34:06.601Z,4.60
2023-03-05T07:38:09.249Z,3.72
2023-03-05T07:42:11.886Z,4.70
2023-03-05T07:46:17.928Z,4.20
2023-03-05T07:50:20.858Z,5.28
2023-03-05T07:54:23.866Z,6.38
2023-03-05T07:58:26.585Z,3.90
2023-03-05T08:02:30.511Z,2.47
2023-03-05T08:06:33.314Z,3.63
2023-03-05T08:10:36.782Z,4.65
2023-03-05T08:14:39.524Z,4.43
2023-03-05T08:18:43.827Z,3.53
2023-03-05T08:22:46.757Z,4.90
2023-03-05T08:26:49.433Z,4.47
2023-03-05T08:30:52.213Z,4.20
2023-03-05T08:34:58.890Z,4.72
2023-03-05T08:39:01.657Z,5.82
2023-03-05T08:43:05.836Z,2.92
2023-03-05T08:47:08.536Z,3.33
2023-03-05T08:51:14.102Z,3.88
2023-03-05T08:55:17.512Z,4.80
2023-03-05T08:59:20.170Z,2.90
2023-03-05T09:03:23.151Z,5.38
2023-03-05T09:07:27.194Z,5.22
2023-03-05T09:11:29.832Z,6.30
2023-03-05T09:15:32.645Z,3.55
2023-03-05T09:19:35.317Z,4.60
2023-03-05T09:23:39.904Z,3.53
2023-03-05T09:27:43.841Z,3.05
2023-03-05T09:31:48.636Z,5.47
2023-03-05T09:35:51.486Z,4.22
2023-03-05T09:39:56.083Z,6.50
2023-03-05T09:44:08.842Z,4.78
2023-03-05T09:48:18.666Z,2.92
2023-03-05T09:52:24.652Z,3.20
2023-03-05T09:56:32.148Z,4.80
2023-03-05T10:00:39.529Z,3.28
2023-03-05T10:04:46.258Z,4.07
2023-03-05T10:08:55.735Z,4.35
2023-03-05T10:13:03.162Z,4.28
2023-03-05T10:17:41.918Z,4.85
2023-03-05T10:21:54.779Z,2.33
2023-03-05T10:26:13.229Z,3.10
2023-03-05T10:30:30.933Z,4.00
2023-03-05T10:34:50.245Z,3.67
2023-03-05T10:39:07.661Z,2.72
2023-03-05T10:43:22.847Z,3.95
2023-03-05T10:47:31.014Z,4.70
2023-03-05T10:51:38.823Z,4.85
2023-03-05T10:55:41.689Z,4.10
2023-03-05T10:59:49.675Z,2.63
2023-03-05T11:03:57.740Z,2.33
2023-03-05T11:08:00.525Z,3.58
2023-03-05T11:12:13.308Z,4.47
2023-03-05T11:16:21.076Z,3.72
2023-03-05T11:20:35.705Z,3.58
2023-03-05T11:24:39.706Z,4.70
2023-03-05T11:28:58.394Z,2.85
2023-03-05T11:33:14.740Z,3.83
2023-03-05T11:37:25.560Z,3.00
2023-03-05T11:41:36.685Z,2.20
2023-03-05T11:45:40.088Z,2.65
2023-03-05T11:49:47.341Z,3.67
2023-03-05T11:53:56.736Z,3.20
2023-03-05T11:58:13.151Z,2.95
2023-03-05T12:02:20.415Z,3.55
2023-03-05T12:06:30.594Z,3.67
2023-03-05T12:10:34.929Z,5.00
2023-03-05T12:14:43.271Z,2.95
2023-03-05T12:18:53.581Z,2.78
2023-03-05T12:22:58.452Z,1.52
2023-03-05T12:27:15.852Z,2.50
2023-03-05T12:31:29.297Z,1.67
2023-03-05T12:35:38.075Z,3.17
2023-03-05T12:39:58.250Z,0.93
2023-03-05T12:44:23.599Z,2.00
2023-03-05T12:48:44.017Z,2.75
2023-03-05T12:52:47.351Z,3.58
2023-03-05T12:56:51.624Z,2.42
2023-03-05T13:01:03.728Z,1.85
2023-03-05T13:05:18.572Z,2.38
2023-03-05T13:09:27.673Z,2.00
2023-03-05T13:13:34.317Z,1.63
2023-03-05T13:17:41.522Z,2.33
2023-03-05T13:21:44.164Z,1.65
2023-03-05T13:25:57.255Z,1.67
2023-03-05T13:34:12.302Z,1.38
2023-03-05T13:38:25.534Z,2.30
2023-03-05T13:42:31.274Z,2.10
2023-03-05T13:46:35.850Z,1.90
2023-03-05T13:50:41.723Z,2.80
2023-03-05T13:54:44.348Z,1.42
2023-03-05T13:58:53.398Z,1.27
2023-03-05T14:02:59.741Z,2.90
2023-03-05T14:07:06.748Z,3.35
2023-03-05T14:11:15.311Z,5.35
2023-03-05T14:15:23.267Z,1.73
2023-03-05T14:19:35.521Z,1.65
2023-03-05T14:23:43.096Z,1.50
2023-03-05T14:27:48.760Z,1.35
2023-03-05T14:31:54.641Z,1.90
2023-03-05T14:35:58.576Z,2.45
2023-03-05T14:40:06.458Z,2.88
2023-03-05T14:44:17.137Z,1.20
2023-03-05T14:48:19.888Z,2.20
2023-03-05T14:52:25.086Z,1.27
2023-03-05T14:56:29.819Z,1.13
2023-03-05T15:00:32.770Z,1.35
2023-03-05T15:04:35.364Z,0.90
2023-03-05T15:08:38.030Z,2.55
2023-03-05T15:12:44.177Z,2.20
2023-03-05T15:16:47.764Z,1.08
2023-03-05T15:20:52.900Z,0.90
2023-03-05T15:24:55.576Z,0.93
2023-03-05T15:28:59.721Z,1.00
2023-03-05T15:33:05.013Z,1.42
2023-03-05T15:37:08.492Z,0.60
2023-03-05T15:41:11.160Z,1.10
2023-03-05T15:45:15.377Z,1.45
2023-03-05T15:49:19.008Z,0.98
2023-03-05T15:53:23.210Z,1.35
2023-03-05T15:57:26.501Z,0.70
2023-03-05T16:01:30.881Z,0.95
2023-03-05T16:05:34.955Z,0.80
2023-03-05T16:09:41.557Z,1.70
2023-03-05T16:13:44.500Z,1.23
2023-03-05T16:17:51.253Z,2.22
2023-03-05T16:25:58.609Z,1.73
2023-03-05T16:30:01.432Z,1.67
2023-03-05T16:34:05.863Z,1.67
2023-03-05T16:38:08.505Z,1.20
2023-03-05T16:42:12.961Z,0.77
2023-03-05T16:46:16.024Z,1.25
2023-03-05T16:50:20.227Z,1.25
2023-03-05T16:54:32.443Z,1.42
2023-03-05T16:58:37.177Z,1.98
2023-03-05T17:02:40.907Z,0.88
2023-03-05T17:06:49.526Z,1.38
2023-03-05T17:10:52.509Z,1.65
2023-03-05T17:14:55.231Z,1.48
2023-03-05T17:18:58.330Z,1.00
2023-03-05T17:23:03.949Z,1.33
2023-03-05T17:27:06.833Z,0.88
2023-03-05T17:31:09.690Z,0.95
2023-03-05T17:35:18.898Z,1.75
2023-03-05T17:39:28.743Z,1.42
2023-03-05T17:43:31.419Z,0.73
2023-03-05T17:47:34.507Z,0.90
2023-03-05T17:51:37.818Z,0.80
2023-03-05T17:55:43.021Z,0.98
2023-03-05T17:59:46.062Z,0.98
2023-03-05T18:03:48.709Z,1.23
2023-03-05T18:07:51.869Z,1.05
2023-03-05T18:11:55.884Z,1.25
2023-03-05T18:15:59.581Z,1.35
2023-03-05T18:20:03.983Z,1.33
2023-03-05T18:24:07.853Z,1.92
2023-03-05T18:28:15.537Z,1.42
2023-03-05T18:32:18.258Z,1.40
2023-03-05T18:36:20.993Z,1.67
2023-03-05T18:40:29.910Z,1.20
2023-03-05T18:44:35.497Z,1.20
2023-03-05T18:48:39.664Z,1.27
2023-03-05T18:52:42.542Z,1.80
2023-03-05T18:56:45.776Z,1.90
2023-03-05T19:00:50.019Z,1.63
2023-03-05T19:04:52.773Z,1.23
2023-03-05T19:08:58.594Z,1.30
2023-03-05T19:13:15.721Z,2.03
2023-03-05T19:17:19.751Z,1.80
2023-03-05T19:21:22.466Z,0.88
2023-03-05T19:25:25.203Z,2.22
2023-03-05T19:29:37.572Z,1.98
2023-03-05T19:33:41.772Z,1.65
2023-03-05T19:37:45.889Z,2.22
2023-03-05T19:41:49.726Z,1.90
2023-03-05T19:45:53.348Z,2.05
2023-03-05T19:49:57.448Z,1.50
2023-03-05T19:54:00.755Z,1.73
2023-03-05T19:58:03.487Z,1.33
2023-03-05T20:02:10.921Z,1.88
2023-03-05T20:06:17.683Z,2.13
2023-03-05T20:10:20.901Z,2.10
2023-03-05T20:14:23.543Z,1.83
2023-03-05T20:18:28.605Z,2.88
2023-03-05T20:22:34.375Z,2.38
2023-03-05T20:26:39.324Z,2.28
2023-03-05T20:30:43.860Z,2.08
2023-03-05T20:34:46.533Z,1.98
2023-03-05T20:38:50.718Z,2.03
2023-03-05T20:42:53.337Z,2.03
2023-03-05T20:47:10.301Z,1.60
2023-03-05T20:51:14.299Z,1.80
2023-03-05T20:55:18.288Z,1.63
2023-03-05T20:59:23.226Z,1.75
2023-03-05T21:03:25.863Z,1.90
2023-03-05T21:07:29.682Z,1.92
2023-03-05T21:11:35.594Z,1.73
2023-03-05T21:15:41.332Z,1.73
2023-03-05T21:19:43.945Z,2.33
2023-03-05T21:23:47.040Z,1.40
2023-03-05T21:27:54.740Z,1.13
2023-03-05T21:31:58.402Z,2.28
2023-03-05T21:36:01.091Z,2.22
2023-03-05T21:40:04.620Z,2.10
2023-03-05T21:44:10.613Z,0.98
2023-03-05T21:48:14.767Z,1.30
2023-03-05T21:52:17.564Z,1.88
2023-03-05T21:56:25.106Z,1.58
2023-03-05T22:00:29.489Z,1.90
2023-03-05T22:04:32.300Z,2.25
2023-03-05T22:08:34.886Z,2.58
2023-03-05T22:12:51.460Z,1.73
2023-03-05T22:16:57.176Z,1.95
2023-03-05T22:21:00.752Z,2.42
2023-03-05T22:25:04.188Z,3.30
2023-03-05T22:29:09.171Z,2.15
2023-03-05T22:33:13.756Z,2.25
2023-03-05T22:37:16.411Z,1.58
2023-03-05T22:41:20.655Z,1.85
2023-03-05T22:45:23.337Z,3.03
2023-03-05T22:49:27.273Z,2.15
2023-03-05T22:53:30.276Z,2.45
2023-03-05T22:57:34.425Z,1.85
2023-03-05T23:01:37.069Z,2.20
2023-03-05T23:05:41.177Z,3.17
2023-03-05T23:09:43.902Z,1.17
2023-03-05T23:13:46.573Z,2.13
2023-03-05T23:17:49.233Z,2.40
2023-03-05T23:21:53.172Z,1.52
2023-03-05T23:25:55.815Z,1.83
2023-03-05T23:30:08.943Z,2.30
2023-03-05T23:38:15.611Z,1.17
2023-03-05T23:42:18.216Z,1.70
2023-03-05T23:46:20.895Z,1.45
2023-03-05T23:50:25.556Z,1.95
2023-03-05T23:54:29.545Z,1.60
2023-03-05T23:58:32.160Z,1.63
